sensor_id;sensor_type;location;lat;lon;timestamp;temperature;humidity
61672;DHT22;47572;0.00000000;0.00000000;2023-02-01T00:00:33;18.50;61.40
61672;DHT22;47572;0.00000000;0.00000000;2023-02-01T00:03:02;18.50;61.50
61672;DHT22;47572;0.00000000;0.00000000;2023-02-01T00:05:28;18.40;61.50
61672;DHT22;47572;0.00000000;0.00000000;2023-02-01T00:07:54;18.40;61.50
61672;DHT22;47572;0.00000000;0.00000000;2023-02-01T00:10:19;18.40;61.40
61672;DHT22;47572;0.00000000;0.00000000;2023-02-01T00:12:45;18.40;61.50
61672;DHT22;47572;0.00000000;0.00000000;2023-02-01T00:15:11;18.40;61.50
61672;DHT22;47572;0.00000000;0.00000000;2023-02-01T00:17:43;18.40;61.60
61672;DHT22;47572;0.00000000;0.00000000;2023-02-01T00:20:12;18.40;61.60
61672;DHT22;47572;0.00000000;0.00000000;2023-02-01T00:22:38;18.30;61.50
61672;DHT22;47572;0.00000000;0.00000000;2023-02-01T00:25:05;18.40;61.60
61672;DHT22;47572;0.00000000;0.00000000;2023-02-01T00:27:31;18.30;61.60
61672;DHT22;47572;0.00000000;0.00000000;2023-02-01T00:29:57;18.30;61.60
61672;DHT22;47572;0.00000000;0.00000000;2023-02-01T00:32:22;18.30;61.60
61672;DHT22;47572;0.00000000;0.00000000;2023-02-01T00:34:48;18.30;61.60
61672;DHT22;47572;0.00000000;0.00000000;2023-02-01T00:37:14;18.30;61.60
61672;DHT22;47572;0.00000000;0.00000000;2023-02-01T00:39:40;18.20;61.60
61672;DHT22;47572;0.00000000;0.00000000;2023-02-01T00:42:07;18.30;61.70
61672;DHT22;47572;0.00000000;0.00000000;2023-02-01T00:44:33;18.30;61.70
61672;DHT22;47572;0.00000000;0.00000000;2023-02-01T00:47:01;18.30;61.60
61672;DHT22;47572;0.00000000;0.00000000;2023-02-01T00:49:28;18.20;61.60
61672;DHT22;47572;0.00000000;0.00000000;2023-02-01T00:51:54;18.20;61.50
61672;DHT22;47572;0.00000000;0.00000000;2023-02-01T00:54:20;18.30;61.50
61672;DHT22;47572;0.00000000;0.00000000;2023-02-01T00:56:46;18.20;61.50
61672;DHT22;47572;0.00000000;0.00000000;2023-02-01T00:59:12;18.20;61.50
61672;DHT22;47572;0.00000000;0.00000000;2023-02-01T01:01:39;18.20;61.50
61672;DHT22;47572;0.00000000;0.00000000;2023-02-01T01:04:04;18.20;61.40
61672;DHT22;47572;0.00000000;0.00000000;2023-02-01T01:06:43;18.20;61.30
61672;DHT22;47572;0.00000000;0.00000000;2023-02-01T01:09:09;18.20;61.30
61672;DHT22;47572;0.00000000;0.00000000;2023-02-01T01:11:37;18.20;61.30
61672;DHT22;47572;0.00000000;0.00000000;2023-02-01T01:14:12;18.20;61.20
61672;DHT22;47572;0.00000000;0.00000000;2023-02-01T01:16:38;18.20;61.10
61672;DHT22;47572;0.00000000;0.00000000;2023-02-01T01:19:04;18.20;61.10
61672;DHT22;47572;0.00000000;0.00000000;2023-02-01T01:21:31;18.10;61.00
61672;DHT22;47572;0.00000000;0.00000000;2023-02-01T01:23:57;18.20;61.00
61672;DHT22;47572;0.00000000;0.00000000;2023-02-01T01:26:28;18.20;61.00
61672;DHT22;47572;0.00000000;0.00000000;2023-02-01T01:28:56;18.20;61.00
61672;DHT22;47572;0.00000000;0.00000000;2023-02-01T01:31:22;18.20;61.00
61672;DHT22;47572;0.00000000;0.00000000;2023-02-01T01:33:50;18.20;61.00
61672;DHT22;47572;0.00000000;0.00000000;2023-02-01T01:36:17;18.20;61.00
61672;DHT22;47572;0.00000000;0.00000000;2023-02-01T01:38:43;18.10;60.90
61672;DHT22;47572;0.00000000;0.00000000;2023-02-01T01:41:14;18.10;60.90
61672;DHT22;47572;0.00000000;0.00000000;2023-02-01T01:43:52;18.10;60.90
61672;DHT22;47572;0.00000000;0.00000000;2023-02-01T01:46:21;18.10;60.90
61672;DHT22;47572;0.00000000;0.00000000;2023-02-01T01:49:12;18.10;60.90
61672;DHT22;47572;0.00000000;0.00000000;2023-02-01T01:52:00;18.10;60.90
61672;DHT22;47572;0.00000000;0.00000000;2023-02-01T01:54:40;18.00;60.90
61672;DHT22;47572;0.00000000;0.00000000;2023-02-01T01:57:20;18.00;61.00
61672;DHT22;47572;0.00000000;0.00000000;2023-02-01T01:59:52;18.00;61.20
61672;DHT22;47572;0.00000000;0.00000000;2023-02-01T02:02:20;18.00;61.20
61672;DHT22;47572;0.00000000;0.00000000;2023-02-01T02:04:55;18.00;61.30
61672;DHT22;47572;0.00000000;0.00000000;2023-02-01T02:07:26;18.00;61.30
61672;DHT22;47572;0.00000000;0.00000000;2023-02-01T02:09:54;17.90;61.30
61672;DHT22;47572;0.00000000;0.00000000;2023-02-01T02:12:20;17.90;61.30
61672;DHT22;47572;0.00000000;0.00000000;2023-02-01T02:14:46;17.90;61.40
61672;DHT22;47572;0.00000000;0.00000000;2023-02-01T02:17:34;17.90;61.40
61672;DHT22;47572;0.00000000;0.00000000;2023-02-01T02:34:57;17.80;61.40
61672;DHT22;47572;0.00000000;0.00000000;2023-02-01T02:39:59;17.80;61.40
61672;DHT22;47572;0.00000000;0.00000000;2023-02-01T02:48:27;17.80;61.40
61672;DHT22;47572;0.00000000;0.00000000;2023-02-01T02:51:04;17.70;61.30
61672;DHT22;47572;0.00000000;0.00000000;2023-02-01T02:54:21;17.80;61.40
61672;DHT22;47572;0.00000000;0.00000000;2023-02-01T02:57:10;17.70;61.30
61672;DHT22;47572;0.00000000;0.00000000;2023-02-01T02:59:57;17.70;61.30
61672;DHT22;47572;0.00000000;0.00000000;2023-02-01T03:02:43;17.70;61.40
61672;DHT22;47572;0.00000000;0.00000000;2023-02-01T03:05:37;17.70;61.30
61672;DHT22;47572;0.00000000;0.00000000;2023-02-01T03:21:32;17.70;61.10
61672;DHT22;47572;0.00000000;0.00000000;2023-02-01T03:24:03;17.70;61.10
61672;DHT22;47572;0.00000000;0.00000000;2023-02-01T03:26:32;17.60;61.10
61672;DHT22;47572;0.00000000;0.00000000;2023-02-01T03:29:14;17.60;61.10
61672;DHT22;47572;0.00000000;0.00000000;2023-02-01T03:31:41;17.70;61.10
61672;DHT22;47572;0.00000000;0.00000000;2023-02-01T03:34:07;17.60;61.10
61672;DHT22;47572;0.00000000;0.00000000;2023-02-01T03:36:48;17.60;61.10
61672;DHT22;47572;0.00000000;0.00000000;2023-02-01T03:39:47;17.60;61.00
61672;DHT22;47572;0.00000000;0.00000000;2023-02-01T03:42:19;17.60;61.00
61672;DHT22;47572;0.00000000;0.00000000;2023-02-01T03:47:37;17.60;61.00
61672;DHT22;47572;0.00000000;0.00000000;2023-02-01T03:50:08;17.60;61.00
61672;DHT22;47572;0.00000000;0.00000000;2023-02-01T03:52:42;17.60;61.00
61672;DHT22;47572;0.00000000;0.00000000;2023-02-01T03:55:11;17.50;61.00
61672;DHT22;47572;0.00000000;0.00000000;2023-02-01T03:57:43;17.50;61.00
61672;DHT22;47572;0.00000000;0.00000000;2023-02-01T04:00:18;17.50;61.00
61672;DHT22;47572;0.00000000;0.00000000;2023-02-01T04:02:44;17.50;60.90
61672;DHT22;47572;0.00000000;0.00000000;2023-02-01T04:05:10;17.50;61.00
61672;DHT22;47572;0.00000000;0.00000000;2023-02-01T04:07:37;17.50;61.00
61672;DHT22;47572;0.00000000;0.00000000;2023-02-01T04:10:03;17.50;61.00
61672;DHT22;47572;0.00000000;0.00000000;2023-02-01T04:12:29;17.50;61.00
61672;DHT22;47572;0.00000000;0.00000000;2023-02-01T04:14:57;17.50;61.10
61672;DHT22;47572;0.00000000;0.00000000;2023-02-01T04:17:24;17.50;61.10
61672;DHT22;47572;0.00000000;0.00000000;2023-02-01T04:19:50;17.50;61.10
61672;DHT22;47572;0.00000000;0.00000000;2023-02-01T04:22:15;17.50;61.10
61672;DHT22;47572;0.00000000;0.00000000;2023-02-01T04:24:42;17.40;61.00
61672;DHT22;47572;0.00000000;0.00000000;2023-02-01T04:27:07;17.50;61.00
61672;DHT22;47572;0.00000000;0.00000000;2023-02-01T04:29:39;17.40;61.00
61672;DHT22;47572;0.00000000;0.00000000;2023-02-01T04:32:05;17.40;61.00
61672;DHT22;47572;0.00000000;0.00000000;2023-02-01T04:34:31;17.40;61.00
61672;DHT22;47572;0.00000000;0.00000000;2023-02-01T04:36:57;17.40;61.00
61672;DHT22;47572;0.00000000;0.00000000;2023-02-01T04:39:23;17.40;61.00
61672;DHT22;47572;0.00000000;0.00000000;2023-02-01T04:41:49;17.40;61.00
61672;DHT22;47572;0.00000000;0.00000000;2023-02-01T04:44:17;17.30;61.00
61672;DHT22;47572;0.00000000;0.00000000;2023-02-01T04:46:44;17.30;60.90
61672;DHT22;47572;0.00000000;0.00000000;2023-02-01T04:49:11;17.40;61.00
61672;DHT22;47572;0.00000000;0.00000000;2023-02-01T04:51:37;17.30;60.90
61672;DHT22;47572;0.00000000;0.00000000;2023-02-01T04:54:03;17.30;61.00
61672;DHT22;47572;0.00000000;0.00000000;2023-02-01T04:56:32;17.30;60.90
61672;DHT22;47572;0.00000000;0.00000000;2023-02-01T04:59:00;17.30;60.90
61672;DHT22;47572;0.00000000;0.00000000;2023-02-01T05:01:27;17.30;60.90
61672;DHT22;47572;0.00000000;0.00000000;2023-02-01T05:03:54;17.30;60.90
61672;DHT22;47572;0.00000000;0.00000000;2023-02-01T05:12:36;17.30;60.80
61672;DHT22;47572;0.00000000;0.00000000;2023-02-01T05:15:20;17.30;60.90
61672;DHT22;47572;0.00000000;0.00000000;2023-02-01T05:17:46;17.20;60.80
61672;DHT22;47572;0.00000000;0.00000000;2023-02-01T05:20:12;17.20;60.80
61672;DHT22;47572;0.00000000;0.00000000;2023-02-01T05:22:38;17.20;60.90
61672;DHT22;47572;0.00000000;0.00000000;2023-02-01T05:25:04;17.20;60.80
61672;DHT22;47572;0.00000000;0.00000000;2023-02-01T05:27:34;17.30;60.80
61672;DHT22;47572;0.00000000;0.00000000;2023-02-01T05:30:02;17.30;60.80
61672;DHT22;47572;0.00000000;0.00000000;2023-02-01T05:32:27;17.30;60.70
61672;DHT22;47572;0.00000000;0.00000000;2023-02-01T05:34:53;17.30;60.60
61672;DHT22;47572;0.00000000;0.00000000;2023-02-01T05:37:19;17.30;60.50
61672;DHT22;47572;0.00000000;0.00000000;2023-02-01T05:39:45;17.40;60.50
61672;DHT22;47572;0.00000000;0.00000000;2023-02-01T05:42:11;17.40;60.40
61672;DHT22;47572;0.00000000;0.00000000;2023-02-01T05:44:37;17.40;60.30
61672;DHT22;47572;0.00000000;0.00000000;2023-02-01T05:47:03;17.40;60.20
61672;DHT22;47572;0.00000000;0.00000000;2023-02-01T05:49:29;17.40;60.10
61672;DHT22;47572;0.00000000;0.00000000;2023-02-01T05:51:55;17.40;60.10
61672;DHT22;47572;0.00000000;0.00000000;2023-02-01T05:54:21;17.50;60.10
61672;DHT22;47572;0.00000000;0.00000000;2023-02-01T05:56:48;17.50;60.00
61672;DHT22;47572;0.00000000;0.00000000;2023-02-01T05:59:13;17.50;60.00
61672;DHT22;47572;0.00000000;0.00000000;2023-02-01T06:01:39;17.50;59.90
61672;DHT22;47572;0.00000000;0.00000000;2023-02-01T06:04:07;17.50;59.90
61672;DHT22;47572;0.00000000;0.00000000;2023-02-01T06:06:33;17.50;59.80
61672;DHT22;47572;0.00000000;0.00000000;2023-02-01T06:09:00;17.50;59.80
61672;DHT22;47572;0.00000000;0.00000000;2023-02-01T06:11:26;17.50;59.70
61672;DHT22;47572;0.00000000;0.00000000;2023-02-01T06:13:57;17.50;59.70
61672;DHT22;47572;0.00000000;0.00000000;2023-02-01T06:16:23;17.50;59.60
61672;DHT22;47572;0.00000000;0.00000000;2023-02-01T06:18:49;17.50;59.60
61672;DHT22;47572;0.00000000;0.00000000;2023-02-01T06:21:17;17.50;59.60
61672;DHT22;47572;0.00000000;0.00000000;2023-02-01T06:23:53;17.50;59.60
61672;DHT22;47572;0.00000000;0.00000000;2023-02-01T06:26:19;17.50;59.60
61672;DHT22;47572;0.00000000;0.00000000;2023-02-01T06:28:45;17.50;59.90
61672;DHT22;47572;0.00000000;0.00000000;2023-02-01T06:31:11;17.50;59.50
61672;DHT22;47572;0.00000000;0.00000000;2023-02-01T06:33:37;17.50;59.50
61672;DHT22;47572;0.00000000;0.00000000;2023-02-01T06:36:06;17.60;59.60
61672;DHT22;47572;0.00000000;0.00000000;2023-02-01T06:38:44;17.50;59.50
61672;DHT22;47572;0.00000000;0.00000000;2023-02-01T06:41:10;17.60;59.60
61672;DHT22;47572;0.00000000;0.00000000;2023-02-01T06:43:36;17.60;59.50
61672;DHT22;47572;0.00000000;0.00000000;2023-02-01T06:46:05;17.60;59.60
61672;DHT22;47572;0.00000000;0.00000000;2023-02-01T06:48:45;17.60;59.50
61672;DHT22;47572;0.00000000;0.00000000;2023-02-01T06:51:27;17.60;59.60
61672;DHT22;47572;0.00000000;0.00000000;2023-02-01T06:53:55;17.60;59.50
61672;DHT22;47572;0.00000000;0.00000000;2023-02-01T06:56:21;17.50;59.60
61672;DHT22;47572;0.00000000;0.00000000;2023-02-01T06:58:48;17.60;59.60
61672;DHT22;47572;0.00000000;0.00000000;2023-02-01T07:01:20;17.60;59.60
61672;DHT22;47572;0.00000000;0.00000000;2023-02-01T07:03:50;17.60;59.70
61672;DHT22;47572;0.00000000;0.00000000;2023-02-01T07:06:19;17.60;59.60
61672;DHT22;47572;0.00000000;0.00000000;2023-02-01T07:08:46;17.60;59.70
61672;DHT22;47572;0.00000000;0.00000000;2023-02-01T07:11:15;17.50;59.70
61672;DHT22;47572;0.00000000;0.00000000;2023-02-01T07:13:59;17.50;59.70
61672;DHT22;47572;0.00000000;0.00000000;2023-02-01T07:16:45;17.50;59.70
61672;DHT22;47572;0.00000000;0.00000000;2023-02-01T07:19:31;17.50;59.70
61672;DHT22;47572;0.00000000;0.00000000;2023-02-01T07:21:56;17.50;59.70
61672;DHT22;47572;0.00000000;0.00000000;2023-02-01T07:24:22;17.50;59.60
61672;DHT22;47572;0.00000000;0.00000000;2023-02-01T07:26:48;17.50;59.70
61672;DHT22;47572;0.00000000;0.00000000;2023-02-01T07:29:17;17.50;59.70
61672;DHT22;47572;0.00000000;0.00000000;2023-02-01T07:31:43;17.50;59.60
61672;DHT22;47572;0.00000000;0.00000000;2023-02-01T07:34:09;17.50;59.70
61672;DHT22;47572;0.00000000;0.00000000;2023-02-01T07:36:35;17.50;59.70
61672;DHT22;47572;0.00000000;0.00000000;2023-02-01T07:39:03;17.50;59.70
61672;DHT22;47572;0.00000000;0.00000000;2023-02-01T07:41:29;17.50;59.70
61672;DHT22;47572;0.00000000;0.00000000;2023-02-01T07:43:55;17.50;59.70
61672;DHT22;47572;0.00000000;0.00000000;2023-02-01T07:46:21;17.50;59.70
61672;DHT22;47572;0.00000000;0.00000000;2023-02-01T07:48:47;17.50;59.60
61672;DHT22;47572;0.00000000;0.00000000;2023-02-01T07:51:15;17.50;59.40
61672;DHT22;47572;0.00000000;0.00000000;2023-02-01T07:53:41;17.50;59.30
61672;DHT22;47572;0.00000000;0.00000000;2023-02-01T07:56:16;17.50;59.50
61672;DHT22;47572;0.00000000;0.00000000;2023-02-01T07:58:43;17.50;59.40
61672;DHT22;47572;0.00000000;0.00000000;2023-02-01T08:01:20;17.60;59.30
61672;DHT22;47572;0.00000000;0.00000000;2023-02-01T08:03:57;17.60;59.10
61672;DHT22;47572;0.00000000;0.00000000;2023-02-01T08:06:29;17.80;58.70
61672;DHT22;47572;0.00000000;0.00000000;2023-02-01T08:08:56;17.90;58.40
61672;DHT22;47572;0.00000000;0.00000000;2023-02-01T08:11:23;18.00;58.00
61672;DHT22;47572;0.00000000;0.00000000;2023-02-01T08:13:49;18.10;57.70
61672;DHT22;47572;0.00000000;0.00000000;2023-02-01T08:16:16;18.30;57.40
61672;DHT22;47572;0.00000000;0.00000000;2023-02-01T08:18:43;18.50;57.20
61672;DHT22;47572;0.00000000;0.00000000;2023-02-01T08:21:10;18.50;56.70
61672;DHT22;47572;0.00000000;0.00000000;2023-02-01T08:23:38;18.70;56.50
61672;DHT22;47572;0.00000000;0.00000000;2023-02-01T08:26:08;18.80;56.10
61672;DHT22;47572;0.00000000;0.00000000;2023-02-01T08:28:35;19.00;55.80
61672;DHT22;47572;0.00000000;0.00000000;2023-02-01T08:31:08;19.10;55.50
61672;DHT22;47572;0.00000000;0.00000000;2023-02-01T08:33:35;19.20;55.20
61672;DHT22;47572;0.00000000;0.00000000;2023-02-01T08:36:04;19.30;54.90
61672;DHT22;47572;0.00000000;0.00000000;2023-02-01T08:38:31;19.40;54.70
61672;DHT22;47572;0.00000000;0.00000000;2023-02-01T08:40:57;19.40;54.70
61672;DHT22;47572;0.00000000;0.00000000;2023-02-01T08:43:23;19.50;54.50
61672;DHT22;47572;0.00000000;0.00000000;2023-02-01T08:45:50;19.50;54.50
61672;DHT22;47572;0.00000000;0.00000000;2023-02-01T08:48:19;19.50;54.30
61672;DHT22;47572;0.00000000;0.00000000;2023-02-01T08:50:46;19.60;54.40
61672;DHT22;47572;0.00000000;0.00000000;2023-02-01T08:53:11;19.60;54.50
61672;DHT22;47572;0.00000000;0.00000000;2023-02-01T08:55:39;19.60;54.50
61672;DHT22;47572;0.00000000;0.00000000;2023-02-01T08:58:05;19.60;54.40
61672;DHT22;47572;0.00000000;0.00000000;2023-02-01T09:00:31;19.60;54.40
61672;DHT22;47572;0.00000000;0.00000000;2023-02-01T09:03:18;19.60;54.40
61672;DHT22;47572;0.00000000;0.00000000;2023-02-01T09:05:43;19.60;54.30
61672;DHT22;47572;0.00000000;0.00000000;2023-02-01T09:08:24;19.70;54.40
61672;DHT22;47572;0.00000000;0.00000000;2023-02-01T09:10:50;19.60;54.20
61672;DHT22;47572;0.00000000;0.00000000;2023-02-01T09:13:16;19.70;54.30
61672;DHT22;47572;0.00000000;0.00000000;2023-02-01T09:15:41;19.70;54.10
61672;DHT22;47572;0.00000000;0.00000000;2023-02-01T09:18:07;19.70;54.10
61672;DHT22;47572;0.00000000;0.00000000;2023-02-01T09:20:33;19.70;54.00
61672;DHT22;47572;0.00000000;0.00000000;2023-02-01T09:22:59;19.70;54.00
61672;DHT22;47572;0.00000000;0.00000000;2023-02-01T09:25:26;19.70;54.00
61672;DHT22;47572;0.00000000;0.00000000;2023-02-01T09:27:51;19.70;54.20
61672;DHT22;47572;0.00000000;0.00000000;2023-02-01T09:30:17;19.70;54.00
61672;DHT22;47572;0.00000000;0.00000000;2023-02-01T09:32:43;19.80;54.20
61672;DHT22;47572;0.00000000;0.00000000;2023-02-01T09:35:09;19.80;54.20
61672;DHT22;47572;0.00000000;0.00000000;2023-02-01T09:37:34;19.70;54.30
61672;DHT22;47572;0.00000000;0.00000000;2023-02-01T09:40:01;19.80;54.40
61672;DHT22;47572;0.00000000;0.00000000;2023-02-01T09:47:46;19.70;54.50
61672;DHT22;47572;0.00000000;0.00000000;2023-02-01T09:50:19;19.70;54.70
61672;DHT22;47572;0.00000000;0.00000000;2023-02-01T09:52:54;19.70;54.70
61672;DHT22;47572;0.00000000;0.00000000;2023-02-01T09:55:50;19.70;54.80
61672;DHT22;47572;0.00000000;0.00000000;2023-02-01T09:58:27;19.70;54.90
61672;DHT22;47572;0.00000000;0.00000000;2023-02-01T10:00:57;19.60;54.80
61672;DHT22;47572;0.00000000;0.00000000;2023-02-01T10:03:26;19.60;54.80
61672;DHT22;47572;0.00000000;0.00000000;2023-02-01T10:06:11;19.70;54.90
61672;DHT22;47572;0.00000000;0.00000000;2023-02-01T10:20:22;19.70;54.90
61672;DHT22;47572;0.00000000;0.00000000;2023-02-01T10:23:27;19.60;54.80
61672;DHT22;47572;0.00000000;0.00000000;2023-02-01T10:28:34;19.70;54.80
61672;DHT22;47572;0.00000000;0.00000000;2023-02-01T10:31:02;19.70;54.90
61672;DHT22;47572;0.00000000;0.00000000;2023-02-01T10:33:39;19.70;54.80
61672;DHT22;47572;0.00000000;0.00000000;2023-02-01T10:38:38;19.70;54.60
61672;DHT22;47572;0.00000000;0.00000000;2023-02-01T10:41:15;19.70;54.60
61672;DHT22;47572;0.00000000;0.00000000;2023-02-01T10:43:43;19.70;54.60
61672;DHT22;47572;0.00000000;0.00000000;2023-02-01T10:46:10;19.70;54.50
61672;DHT22;47572;0.00000000;0.00000000;2023-02-01T10:48:36;19.80;54.50
61672;DHT22;47572;0.00000000;0.00000000;2023-02-01T10:51:21;19.80;54.40
61672;DHT22;47572;0.00000000;0.00000000;2023-02-01T10:53:52;19.80;54.40
61672;DHT22;47572;0.00000000;0.00000000;2023-02-01T10:56:25;19.80;54.20
61672;DHT22;47572;0.00000000;0.00000000;2023-02-01T10:58:51;19.80;54.00
61672;DHT22;47572;0.00000000;0.00000000;2023-02-01T11:01:39;19.80;54.00
61672;DHT22;47572;0.00000000;0.00000000;2023-02-01T11:04:10;19.80;54.20
61672;DHT22;47572;0.00000000;0.00000000;2023-02-01T11:06:41;19.90;54.20
61672;DHT22;47572;0.00000000;0.00000000;2023-02-01T11:16:57;19.90;54.30
61672;DHT22;47572;0.00000000;0.00000000;2023-02-01T11:19:23;19.90;54.40
61672;DHT22;47572;0.00000000;0.00000000;2023-02-01T11:21:51;19.90;54.40
61672;DHT22;47572;0.00000000;0.00000000;2023-02-01T11:24:31;19.90;54.50
61672;DHT22;47572;0.00000000;0.00000000;2023-02-01T11:27:01;19.90;54.50
61672;DHT22;47572;0.00000000;0.00000000;2023-02-01T11:29:36;19.90;54.50
61672;DHT22;47572;0.00000000;0.00000000;2023-02-01T11:32:03;19.90;54.40
61672;DHT22;47572;0.00000000;0.00000000;2023-02-01T11:37:40;20.00;54.60
61672;DHT22;47572;0.00000000;0.00000000;2023-02-01T11:42:54;19.90;54.50
61672;DHT22;47572;0.00000000;0.00000000;2023-02-01T11:45:25;19.90;54.50
61672;DHT22;47572;0.00000000;0.00000000;2023-02-01T11:47:53;20.00;54.60
61672;DHT22;47572;0.00000000;0.00000000;2023-02-01T11:50:28;19.90;54.50
61672;DHT22;47572;0.00000000;0.00000000;2023-02-01T11:55:47;19.90;54.70
61672;DHT22;47572;0.00000000;0.00000000;2023-02-01T12:06:51;19.90;54.50
61672;DHT22;47572;0.00000000;0.00000000;2023-02-01T12:09:37;19.90;54.30
61672;DHT22;47572;0.00000000;0.00000000;2023-02-01T12:15:00;19.90;54.50
61672;DHT22;47572;0.00000000;0.00000000;2023-02-01T12:23:15;19.90;54.50
61672;DHT22;47572;0.00000000;0.00000000;2023-02-01T12:43:05;20.00;54.20
61672;DHT22;47572;0.00000000;0.00000000;2023-02-01T12:46:02;20.00;54.10
61672;DHT22;47572;0.00000000;0.00000000;2023-02-01T12:48:33;20.10;54.20
61672;DHT22;47572;0.00000000;0.00000000;2023-02-01T12:51:07;20.00;54.20
61672;DHT22;47572;0.00000000;0.00000000;2023-02-01T12:56:11;20.10;54.30
61672;DHT22;47572;0.00000000;0.00000000;2023-02-01T12:58:44;20.10;54.20
61672;DHT22;47572;0.00000000;0.00000000;2023-02-01T13:09:00;20.10;54.30
61672;DHT22;47572;0.00000000;0.00000000;2023-02-01T13:11:39;20.20;54.50
61672;DHT22;47572;0.00000000;0.00000000;2023-02-01T13:14:25;20.20;54.60
61672;DHT22;47572;0.00000000;0.00000000;2023-02-01T13:17:18;20.20;54.70
61672;DHT22;47572;0.00000000;0.00000000;2023-02-01T13:22:25;20.20;54.90
61672;DHT22;47572;0.00000000;0.00000000;2023-02-01T13:27:41;20.30;55.30
61672;DHT22;47572;0.00000000;0.00000000;2023-02-01T13:30:18;20.30;55.30
61672;DHT22;47572;0.00000000;0.00000000;2023-02-01T13:40:56;20.30;55.60
61672;DHT22;47572;0.00000000;0.00000000;2023-02-01T13:43:31;20.30;55.60
61672;DHT22;47572;0.00000000;0.00000000;2023-02-01T13:46:04;20.30;55.70
61672;DHT22;47572;0.00000000;0.00000000;2023-02-01T13:48:47;20.30;55.70
61672;DHT22;47572;0.00000000;0.00000000;2023-02-01T13:51:14;20.30;55.80
61672;DHT22;47572;0.00000000;0.00000000;2023-02-01T13:53:46;20.30;55.80
61672;DHT22;47572;0.00000000;0.00000000;2023-02-01T13:56:18;20.30;55.90
61672;DHT22;47572;0.00000000;0.00000000;2023-02-01T13:58:46;20.30;55.90
61672;DHT22;47572;0.00000000;0.00000000;2023-02-01T14:03:50;20.30;56.30
61672;DHT22;47572;0.00000000;0.00000000;2023-02-01T14:11:55;20.20;56.80
61672;DHT22;47572;0.00000000;0.00000000;2023-02-01T14:19:24;20.20;57.00
61672;DHT22;47572;0.00000000;0.00000000;2023-02-01T14:21:52;20.20;57.10
61672;DHT22;47572;0.00000000;0.00000000;2023-02-01T14:24:35;20.20;57.10
61672;DHT22;47572;0.00000000;0.00000000;2023-02-01T14:29:42;20.20;57.20
61672;DHT22;47572;0.00000000;0.00000000;2023-02-01T14:47:43;20.20;57.50
61672;DHT22;47572;0.00000000;0.00000000;2023-02-01T14:58:01;20.10;57.50
61672;DHT22;47572;0.00000000;0.00000000;2023-02-01T15:00:29;20.10;57.50
61672;DHT22;47572;0.00000000;0.00000000;2023-02-01T15:03:21;20.10;58.50
61672;DHT22;47572;0.00000000;0.00000000;2023-02-01T15:05:56;20.10;57.50
61672;DHT22;47572;0.00000000;0.00000000;2023-02-01T15:08:30;20.10;57.50
61672;DHT22;47572;0.00000000;0.00000000;2023-02-01T15:11:00;20.10;57.50
61672;DHT22;47572;0.00000000;0.00000000;2023-02-01T15:13:28;20.10;57.60
61672;DHT22;47572;0.00000000;0.00000000;2023-02-01T15:16:05;20.10;57.60
61672;DHT22;47572;0.00000000;0.00000000;2023-02-01T15:18:32;20.10;57.80
61672;DHT22;47572;0.00000000;0.00000000;2023-02-01T15:21:00;20.10;57.80
61672;DHT22;47572;0.00000000;0.00000000;2023-02-01T15:23:26;20.00;57.70
61672;DHT22;47572;0.00000000;0.00000000;2023-02-01T15:25:53;20.00;57.70
61672;DHT22;47572;0.00000000;0.00000000;2023-02-01T15:28:19;20.10;57.80
61672;DHT22;47572;0.00000000;0.00000000;2023-02-01T15:30:59;20.10;57.80
61672;DHT22;47572;0.00000000;0.00000000;2023-02-01T15:33:26;20.10;57.80
61672;DHT22;47572;0.00000000;0.00000000;2023-02-01T15:46:32;20.00;57.90
61672;DHT22;47572;0.00000000;0.00000000;2023-02-01T15:48:59;20.00;57.80
61672;DHT22;47572;0.00000000;0.00000000;2023-02-01T15:51:28;19.90;57.80
61672;DHT22;47572;0.00000000;0.00000000;2023-02-01T15:54:01;20.00;58.00
61672;DHT22;47572;0.00000000;0.00000000;2023-02-01T15:56:32;20.00;58.10
61672;DHT22;47572;0.00000000;0.00000000;2023-02-01T15:59:01;19.90;58.10
61672;DHT22;47572;0.00000000;0.00000000;2023-02-01T16:01:27;19.90;58.20
61672;DHT22;47572;0.00000000;0.00000000;2023-02-01T16:04:23;19.90;58.30
61672;DHT22;47572;0.00000000;0.00000000;2023-02-01T16:06:56;19.90;58.30
61672;DHT22;47572;0.00000000;0.00000000;2023-02-01T16:09:24;19.90;58.40
61672;DHT22;47572;0.00000000;0.00000000;2023-02-01T16:11:57;19.90;58.40
61672;DHT22;47572;0.00000000;0.00000000;2023-02-01T16:14:24;19.90;58.40
61672;DHT22;47572;0.00000000;0.00000000;2023-02-01T16:16:52;19.90;58.40
61672;DHT22;47572;0.00000000;0.00000000;2023-02-01T16:19:19;19.80;58.40
61672;DHT22;47572;0.00000000;0.00000000;2023-02-01T16:21:45;19.90;58.50
61672;DHT22;47572;0.00000000;0.00000000;2023-02-01T16:24:12;19.80;58.40
61672;DHT22;47572;0.00000000;0.00000000;2023-02-01T16:26:38;19.80;58.40
61672;DHT22;47572;0.00000000;0.00000000;2023-02-01T16:29:04;19.80;58.40
61672;DHT22;47572;0.00000000;0.00000000;2023-02-01T16:31:37;19.80;58.40
61672;DHT22;47572;0.00000000;0.00000000;2023-02-01T16:34:04;19.80;57.80
61672;DHT22;47572;0.00000000;0.00000000;2023-02-01T16:36:32;19.70;57.40
61672;DHT22;47572;0.00000000;0.00000000;2023-02-01T16:38:58;19.70;57.50
61672;DHT22;47572;0.00000000;0.00000000;2023-02-01T16:41:25;19.70;57.50
61672;DHT22;47572;0.00000000;0.00000000;2023-02-01T16:43:52;19.70;57.60
61672;DHT22;47572;0.00000000;0.00000000;2023-02-01T16:46:21;19.70;57.30
61672;DHT22;47572;0.00000000;0.00000000;2023-02-01T16:48:55;19.70;57.10
61672;DHT22;47572;0.00000000;0.00000000;2023-02-01T16:51:22;19.70;57.10
61672;DHT22;47572;0.00000000;0.00000000;2023-02-01T16:53:48;19.70;57.10
61672;DHT22;47572;0.00000000;0.00000000;2023-02-01T16:56:17;19.80;57.00
61672;DHT22;47572;0.00000000;0.00000000;2023-02-01T16:58:44;19.80;57.00
61672;DHT22;47572;0.00000000;0.00000000;2023-02-01T17:01:11;19.80;57.00
61672;DHT22;47572;0.00000000;0.00000000;2023-02-01T17:03:39;19.80;57.00